sensor_id;sensor_type;location;lat;lon;timestamp;temperature;humidity
6468;DHT22;3267;48.794;9.928;2022-07-21T04:08:09;22.90;64.10
6468;DHT22;3267;48.794;9.928;2022-07-21T04:10:37;22.90;64.10
6468;DHT22;3267;48.794;9.928;2022-07-21T04:13:06;22.70;63.70
6468;DHT22;3267;48.794;9.928;2022-07-21T04:25:19;22.80;62.90
6468;DHT22;3267;48.794;9.928;2022-07-21T04:27:47;22.90;64.40
6468;DHT22;3267;48.794;9.928;2022-07-21T04:30:16;22.80;64.90
6468;DHT22;3267;48.794;9.928;2022-07-21T04:37:36;22.70;63.80
6468;DHT22;3267;48.794;9.928;2022-07-21T04:40:05;22.80;65.30
6468;DHT22;3267;48.794;9.928;2022-07-21T05:02:02;22.70;62.50
6468;DHT22;3267;48.794;9.928;2022-07-21T05:19:06;22.80;64.40
6468;DHT22;3267;48.794;9.928;2022-07-21T05:43:30;22.80;66.50
6468;DHT22;3267;48.794;9.928;2022-07-21T06:17:42;22.80;68.80
6468;DHT22;3267;48.794;9.928;2022-07-21T06:20:09;23.00;68.00
6468;DHT22;3267;48.794;9.928;2022-07-21T06:25:04;23.00;69.00
6468;DHT22;3267;48.794;9.928;2022-07-21T06:49:31;23.20;68.70
6468;DHT22;3267;48.794;9.928;2022-07-21T07:23:39;24.00;66.70
6468;DHT22;3267;48.794;9.928;2022-07-21T07:45:37;24.20;71.30
6468;DHT22;3267;48.794;9.928;2022-07-21T07:48:04;24.20;68.60
6468;DHT22;3267;48.794;9.928;2022-07-21T08:00:17;24.50;69.30
6468;DHT22;3267;48.794;9.928;2022-07-21T08:07:38;24.70;69.20
6468;DHT22;3267;48.794;9.928;2022-07-21T08:10:08;24.80;70.80
6468;DHT22;3267;48.794;9.928;2022-07-21T08:44:20;25.10;63.40
6468;DHT22;3267;48.794;9.928;2022-07-21T08:46:49;25.20;64.70
6468;DHT22;3267;48.794;9.928;2022-07-21T09:03:54;25.90;59.50
6468;DHT22;3267;48.794;9.928;2022-07-21T09:06:20;27.40;61.60
6468;DHT22;3267;48.794;9.928;2022-07-21T09:08:51;26.00;60.20
6468;DHT22;3267;48.794;9.928;2022-07-21T09:11:24;26.20;60.20
6468;DHT22;3267;48.794;9.928;2022-07-21T09:14:12;26.10;60.00
6468;DHT22;3267;48.794;9.928;2022-07-21T09:16:42;26.10;59.50
6468;DHT22;3267;48.794;9.928;2022-07-21T09:19:37;26.20;60.10
6468;DHT22;3267;48.794;9.928;2022-07-21T09:22:15;26.30;59.70
6468;DHT22;3267;48.794;9.928;2022-07-21T09:24:50;26.30;59.80
6468;DHT22;3267;48.794;9.928;2022-07-21T09:27:24;26.40;59.00
6468;DHT22;3267;48.794;9.928;2022-07-21T09:29:53;28.90;62.30
6468;DHT22;3267;48.794;9.928;2022-07-21T09:32:36;26.80;58.40
6468;DHT22;3267;48.794;9.928;2022-07-21T09:35:09;26.90;59.40
6468;DHT22;3267;48.794;9.928;2022-07-21T09:37:37;27.00;59.70
6468;DHT22;3267;48.794;9.928;2022-07-21T09:40:08;28.90;61.00
6468;DHT22;3267;48.794;9.928;2022-07-21T09:42:37;27.50;57.80
6468;DHT22;3267;48.794;9.928;2022-07-21T09:45:11;27.50;58.60
6468;DHT22;3267;48.794;9.928;2022-07-21T09:47:38;27.60;57.40
6468;DHT22;3267;48.794;9.928;2022-07-21T09:50:07;27.60;57.50
6468;DHT22;3267;48.794;9.928;2022-07-21T09:52:35;27.60;58.10
6468;DHT22;3267;48.794;9.928;2022-07-21T09:55:23;27.60;57.10
6468;DHT22;3267;48.794;9.928;2022-07-21T09:57:49;27.60;57.70
6468;DHT22;3267;48.794;9.928;2022-07-21T10:00:17;27.60;57.40
6468;DHT22;3267;48.794;9.928;2022-07-21T10:02:44;27.60;58.00
6468;DHT22;3267;48.794;9.928;2022-07-21T10:05:13;27.60;56.40
6468;DHT22;3267;48.794;9.928;2022-07-21T10:07:41;27.60;57.60
6468;DHT22;3267;48.794;9.928;2022-07-21T10:10:08;27.60;56.50
6468;DHT22;3267;48.794;9.928;2022-07-21T10:12:35;27.60;57.50
6468;DHT22;3267;48.794;9.928;2022-07-21T10:15:01;27.50;56.50
6468;DHT22;3267;48.794;9.928;2022-07-21T10:17:29;27.50;56.50
6468;DHT22;3267;48.794;9.928;2022-07-21T10:20:06;27.40;57.20
6468;DHT22;3267;48.794;9.928;2022-07-21T10:22:58;27.40;57.20
6468;DHT22;3267;48.794;9.928;2022-07-21T10:28:16;27.50;56.30
6468;DHT22;3267;48.794;9.928;2022-07-21T10:30:50;27.60;57.30
6468;DHT22;3267;48.794;9.928;2022-07-21T10:33:18;27.80;58.10
6468;DHT22;3267;48.794;9.928;2022-07-21T10:35:49;27.90;56.70
6468;DHT22;3267;48.794;9.928;2022-07-21T10:38:31;27.90;57.30
6468;DHT22;3267;48.794;9.928;2022-07-21T10:41:00;28.00;57.10
6468;DHT22;3267;48.794;9.928;2022-07-21T10:45:58;28.20;57.00
6468;DHT22;3267;48.794;9.928;2022-07-21T10:51:04;28.20;55.70
6468;DHT22;3267;48.794;9.928;2022-07-21T10:53:32;28.20;55.90
6468;DHT22;3267;48.794;9.928;2022-07-21T10:55:58;28.20;56.50
6468;DHT22;3267;48.794;9.928;2022-07-21T10:58:29;28.20;55.90
6468;DHT22;3267;48.794;9.928;2022-07-21T11:00:57;28.20;56.60
6468;DHT22;3267;48.794;9.928;2022-07-21T11:03:27;28.30;56.50
6468;DHT22;3267;48.794;9.928;2022-07-21T11:11:14;28.60;56.00
6468;DHT22;3267;48.794;9.928;2022-07-21T11:14:08;28.90;54.80
6468;DHT22;3267;48.794;9.928;2022-07-21T11:19:44;29.20;55.80
6468;DHT22;3267;48.794;9.928;2022-07-21T11:22:16;29.30;55.60
6468;DHT22;3267;48.794;9.928;2022-07-21T11:24:51;29.30;55.30
6468;DHT22;3267;48.794;9.928;2022-07-21T11:27:20;29.30;54.80
6468;DHT22;3267;48.794;9.928;2022-07-21T11:29:48;29.30;54.50
6468;DHT22;3267;48.794;9.928;2022-07-21T11:32:15;29.20;54.80
6468;DHT22;3267;48.794;9.928;2022-07-21T11:34:56;29.20;54.90
6468;DHT22;3267;48.794;9.928;2022-07-21T11:37:43;29.20;55.00
6468;DHT22;3267;48.794;9.928;2022-07-21T11:40:19;29.20;54.70
6468;DHT22;3267;48.794;9.928;2022-07-21T11:42:47;29.30;54.30
6468;DHT22;3267;48.794;9.928;2022-07-21T11:45:14;29.30;54.50
6468;DHT22;3267;48.794;9.928;2022-07-21T11:47:40;29.40;53.90
6468;DHT22;3267;48.794;9.928;2022-07-21T11:50:11;29.40;53.90
6468;DHT22;3267;48.794;9.928;2022-07-21T11:52:38;29.40;53.80
6468;DHT22;3267;48.794;9.928;2022-07-21T11:55:07;29.40;53.70
6468;DHT22;3267;48.794;9.928;2022-07-21T11:57:34;29.40;53.40
6468;DHT22;3267;48.794;9.928;2022-07-21T12:00:00;29.50;53.60
6468;DHT22;3267;48.794;9.928;2022-07-21T12:02:28;29.50;53.70
6468;DHT22;3267;48.794;9.928;2022-07-21T12:04:58;29.60;53.10
6468;DHT22;3267;48.794;9.928;2022-07-21T12:07:41;29.80;53.30
6468;DHT22;3267;48.794;9.928;2022-07-21T12:10:10;30.00;53.60
6468;DHT22;3267;48.794;9.928;2022-07-21T12:12:37;30.20;52.90
6468;DHT22;3267;48.794;9.928;2022-07-21T12:17:46;30.20;52.60
6468;DHT22;3267;48.794;9.928;2022-07-21T12:20:13;30.20;53.20
6468;DHT22;3267;48.794;9.928;2022-07-21T12:22:40;30.20;52.70
6468;DHT22;3267;48.794;9.928;2022-07-21T12:25:11;30.30;53.00
6468;DHT22;3267;48.794;9.928;2022-07-21T12:27:41;30.40;52.70
6468;DHT22;3267;48.794;9.928;2022-07-21T12:30:09;30.50;52.50
6468;DHT22;3267;48.794;9.928;2022-07-21T12:32:49;30.70;52.30
6468;DHT22;3267;48.794;9.928;2022-07-21T12:35:23;30.70;52.40
6468;DHT22;3267;48.794;9.928;2022-07-21T12:38:00;30.70;51.20
6468;DHT22;3267;48.794;9.928;2022-07-21T12:40:27;30.90;51.90
6468;DHT22;3267;48.794;9.928;2022-07-21T12:43:05;30.90;51.70
6468;DHT22;3267;48.794;9.928;2022-07-21T12:45:31;31.00;50.90
6468;DHT22;3267;48.794;9.928;2022-07-21T12:48:08;31.00;50.50
6468;DHT22;3267;48.794;9.928;2022-07-21T12:50:34;31.10;50.20
6468;DHT22;3267;48.794;9.928;2022-07-21T12:53:00;31.20;50.70
6468;DHT22;3267;48.794;9.928;2022-07-21T12:55:26;31.20;50.90
6468;DHT22;3267;48.794;9.928;2022-07-21T12:57:52;31.30;51.30
6468;DHT22;3267;48.794;9.928;2022-07-21T13:00:17;31.30;51.50
6468;DHT22;3267;48.794;9.928;2022-07-21T13:02:48;31.20;50.90
6468;DHT22;3267;48.794;9.928;2022-07-21T13:05:14;31.20;50.60
6468;DHT22;3267;48.794;9.928;2022-07-21T13:07:40;31.10;49.90
6468;DHT22;3267;48.794;9.928;2022-07-21T13:10:06;31.20;50.20
6468;DHT22;3267;48.794;9.928;2022-07-21T13:12:32;31.30;49.70
6468;DHT22;3267;48.794;9.928;2022-07-21T13:14:57;31.40;50.20
6468;DHT22;3267;48.794;9.928;2022-07-21T13:17:24;31.60;50.10
6468;DHT22;3267;48.794;9.928;2022-07-21T13:19:50;31.70;49.90
6468;DHT22;3267;48.794;9.928;2022-07-21T13:22:16;31.90;49.90
6468;DHT22;3267;48.794;9.928;2022-07-21T13:24:42;32.10;49.80
6468;DHT22;3267;48.794;9.928;2022-07-21T13:27:07;32.30;49.50
6468;DHT22;3267;48.794;9.928;2022-07-21T13:29:33;32.50;49.20
6468;DHT22;3267;48.794;9.928;2022-07-21T13:32:01;32.80;49.20
6468;DHT22;3267;48.794;9.928;2022-07-21T13:34:26;32.90;48.90
6468;DHT22;3267;48.794;9.928;2022-07-21T13:36:53;33.00;49.00
6468;DHT22;3267;48.794;9.928;2022-07-21T13:39:19;33.30;48.40
6468;DHT22;3267;48.794;9.928;2022-07-21T13:41:46;33.70;48.40
6468;DHT22;3267;48.794;9.928;2022-07-21T13:44:12;33.90;47.80
6468;DHT22;3267;48.794;9.928;2022-07-21T13:46:38;33.90;48.10
6468;DHT22;3267;48.794;9.928;2022-07-21T13:49:04;33.80;47.90
6468;DHT22;3267;48.794;9.928;2022-07-21T13:51:29;33.90;47.90
6468;DHT22;3267;48.794;9.928;2022-07-21T13:53:55;34.10;47.90
6468;DHT22;3267;48.794;9.928;2022-07-21T13:56:21;34.40;47.70
6468;DHT22;3267;48.794;9.928;2022-07-21T13:58:47;34.80;47.90
6468;DHT22;3267;48.794;9.928;2022-07-21T14:01:13;35.20;46.70
6468;DHT22;3267;48.794;9.928;2022-07-21T14:03:41;35.50;46.10
6468;DHT22;3267;48.794;9.928;2022-07-21T14:06:08;35.70;46.10
6468;DHT22;3267;48.794;9.928;2022-07-21T14:08:34;35.70;45.10
6468;DHT22;3267;48.794;9.928;2022-07-21T14:10:59;35.30;43.80
6468;DHT22;3267;48.794;9.928;2022-07-21T14:13:25;35.10;44.40
6468;DHT22;3267;48.794;9.928;2022-07-21T14:15:51;34.80;44.00
6468;DHT22;3267;48.794;9.928;2022-07-21T14:18:17;34.60;44.60
6468;DHT22;3267;48.794;9.928;2022-07-21T14:20:42;34.20;44.10
6468;DHT22;3267;48.794;9.928;2022-07-21T14:23:08;34.00;45.20
6468;DHT22;3267;48.794;9.928;2022-07-21T14:25:34;33.80;44.70
6468;DHT22;3267;48.794;9.928;2022-07-21T14:28:00;33.60;44.80
6468;DHT22;3267;48.794;9.928;2022-07-21T14:30:27;33.40;45.40
6468;DHT22;3267;48.794;9.928;2022-07-21T14:32:54;33.50;45.90
6468;DHT22;3267;48.794;9.928;2022-07-21T14:35:20;33.90;47.00
6468;DHT22;3267;48.794;9.928;2022-07-21T14:37:47;34.60;45.20
6468;DHT22;3267;48.794;9.928;2022-07-21T14:40:15;35.10;45.20
6468;DHT22;3267;48.794;9.928;2022-07-21T14:42:41;35.70;45.20
6468;DHT22;3267;48.794;9.928;2022-07-21T14:45:07;36.40;44.40
6468;DHT22;3267;48.794;9.928;2022-07-21T14:47:33;36.90;44.10
6468;DHT22;3267;48.794;9.928;2022-07-21T14:50:00;37.30;43.40
6468;DHT22;3267;48.794;9.928;2022-07-21T14:52:26;37.60;42.00
6468;DHT22;3267;48.794;9.928;2022-07-21T14:54:52;37.60;42.40
6468;DHT22;3267;48.794;9.928;2022-07-21T14:57:18;37.40;42.90
6468;DHT22;3267;48.794;9.928;2022-07-21T14:59:43;37.60;42.60
6468;DHT22;3267;48.794;9.928;2022-07-21T15:02:09;37.90;42.40
6468;DHT22;3267;48.794;9.928;2022-07-21T15:04:35;38.20;41.50
6468;DHT22;3267;48.794;9.928;2022-07-21T15:07:01;38.50;42.00
6468;DHT22;3267;48.794;9.928;2022-07-21T15:09:27;38.80;41.10
6468;DHT22;3267;48.794;9.928;2022-07-21T15:11:53;38.90;40.90
6468;DHT22;3267;48.794;9.928;2022-07-21T15:14:18;39.20;41.20
6468;DHT22;3267;48.794;9.928;2022-07-21T15:16:44;39.50;41.30
6468;DHT22;3267;48.794;9.928;2022-07-21T15:19:10;39.80;41.40
6468;DHT22;3267;48.794;9.928;2022-07-21T15:21:36;40.20;41.80
6468;DHT22;3267;48.794;9.928;2022-07-21T15:24:02;40.30;40.80
6468;DHT22;3267;48.794;9.928;2022-07-21T15:26:28;40.40;39.10
6468;DHT22;3267;48.794;9.928;2022-07-21T15:28:54;40.40;40.30
6468;DHT22;3267;48.794;9.928;2022-07-21T15:31:20;40.20;39.70
6468;DHT22;3267;48.794;9.928;2022-07-21T15:33:47;40.00;38.70
6468;DHT22;3267;48.794;9.928;2022-07-21T15:36:12;40.00;39.90
6468;DHT22;3267;48.794;9.928;2022-07-21T15:38:38;40.20;39.90
6468;DHT22;3267;48.794;9.928;2022-07-21T15:41:04;40.40;40.50
6468;DHT22;3267;48.794;9.928;2022-07-21T15:43:30;40.80;40.90
6468;DHT22;3267;48.794;9.928;2022-07-21T15:45:56;41.00;39.60
6468;DHT22;3267;48.794;9.928;2022-07-21T15:48:22;41.30;39.70
6468;DHT22;3267;48.794;9.928;2022-07-21T15:50:49;41.70;39.10
6468;DHT22;3267;48.794;9.928;2022-07-21T15:53:16;41.80;39.30
6468;DHT22;3267;48.794;9.928;2022-07-21T15:55:41;41.90;38.70
6468;DHT22;3267;48.794;9.928;2022-07-21T15:58:07;42.00;38.70
6468;DHT22;3267;48.794;9.928;2022-07-21T16:00:33;42.10;38.70
6468;DHT22;3267;48.794;9.928;2022-07-21T16:02:59;42.30;39.10
6468;DHT22;3267;48.794;9.928;2022-07-21T16:05:29;42.60;38.30
6468;DHT22;3267;48.794;9.928;2022-07-21T16:07:55;42.70;38.40
6468;DHT22;3267;48.794;9.928;2022-07-21T16:10:23;42.70;38.10
6468;DHT22;3267;48.794;9.928;2022-07-21T16:12:50;42.40;36.90
6468;DHT22;3267;48.794;9.928;2022-07-21T16:15:17;41.80;36.70
6468;DHT22;3267;48.794;9.928;2022-07-21T16:17:44;41.40;37.30
6468;DHT22;3267;48.794;9.928;2022-07-21T16:20:11;41.30;36.50
6468;DHT22;3267;48.794;9.928;2022-07-21T16:22:37;41.30;36.50
6468;DHT22;3267;48.794;9.928;2022-07-21T16:25:05;41.10;35.90
6468;DHT22;3267;48.794;9.928;2022-07-21T16:27:31;40.80;37.40
6468;DHT22;3267;48.794;9.928;2022-07-21T16:29:56;40.20;37.20
6468;DHT22;3267;48.794;9.928;2022-07-21T16:32:22;39.60;37.40
6468;DHT22;3267;48.794;9.928;2022-07-21T16:34:48;38.90;38.80
6468;DHT22;3267;48.794;9.928;2022-07-21T16:37:14;38.20;37.90
6468;DHT22;3267;48.794;9.928;2022-07-21T16:39:40;37.50;39.10
6468;DHT22;3267;48.794;9.928;2022-07-21T16:42:06;37.00;40.10
6468;DHT22;3267;48.794;9.928;2022-07-21T16:44:33;36.50;40.10
6468;DHT22;3267;48.794;9.928;2022-07-21T16:46:59;36.00;41.40
6468;DHT22;3267;48.794;9.928;2022-07-21T16:49:25;35.70;40.80
6468;DHT22;3267;48.794;9.928;2022-07-21T16:51:51;35.40;41.30
6468;DHT22;3267;48.794;9.928;2022-07-21T16:54:17;35.10;41.00
6468;DHT22;3267;48.794;9.928;2022-07-21T16:56:43;34.90;41.10
6468;DHT22;3267;48.794;9.928;2022-07-21T16:59:10;34.70;41.60
6468;DHT22;3267;48.794;9.928;2022-07-21T17:01:37;34.50;41.70
6468;DHT22;3267;48.794;9.928;2022-07-21T17:04:04;34.40;41.90
6468;DHT22;3267;48.794;9.928;2022-07-21T17:06:31;34.30;41.50
6468;DHT22;3267;48.794;9.928;2022-07-21T17:08:57;34.20;41.50
6468;DHT22;3267;48.794;9.928;2022-07-21T17:11:23;34.30;41.80
6468;DHT22;3267;48.794;9.928;2022-07-21T17:13:48;34.30;42.90
6468;DHT22;3267;48.794;9.928;2022-07-21T17:16:14;34.50;42.00
6468;DHT22;3267;48.794;9.928;2022-07-21T17:18:40;35.00;41.50
6468;DHT22;3267;48.794;9.928;2022-07-21T17:21:06;35.80;40.70
6468;DHT22;3267;48.794;9.928;2022-07-21T17:23:35;36.40;39.80
6468;DHT22;3267;48.794;9.928;2022-07-21T17:26:02;37.00;39.50
6468;DHT22;3267;48.794;9.928;2022-07-21T17:28:28;37.50;39.80
6468;DHT22;3267;48.794;9.928;2022-07-21T17:30:54;37.90;39.80
6468;DHT22;3267;48.794;9.928;2022-07-21T17:33:20;38.20;38.80
6468;DHT22;3267;48.794;9.928;2022-07-21T17:35:46;38.30;38.70
6468;DHT22;3267;48.794;9.928;2022-07-21T17:38:11;38.50;38.90
6468;DHT22;3267;48.794;9.928;2022-07-21T17:40:37;38.70;38.30
6468;DHT22;3267;48.794;9.928;2022-07-21T17:43:03;38.70;38.50
6468;DHT22;3267;48.794;9.928;2022-07-21T17:45:29;38.70;38.10
6468;DHT22;3267;48.794;9.928;2022-07-21T17:47:55;38.50;38.00
6468;DHT22;3267;48.794;9.928;2022-07-21T17:50:21;38.10;38.50
6468;DHT22;3267;48.794;9.928;2022-07-21T17:52:47;37.70;39.30
6468;DHT22;3267;48.794;9.928;2022-07-21T17:55:13;37.30;39.40
6468;DHT22;3267;48.794;9.928;2022-07-21T17:57:38;36.90;39.80
6468;DHT22;3267;48.794;9.928;2022-07-21T18:00:23;36.40;38.80
6468;DHT22;3267;48.794;9.928;2022-07-21T18:02:49;35.90;39.20
6468;DHT22;3267;48.794;9.928;2022-07-21T18:05:15;35.40;40.20
6468;DHT22;3267;48.794;9.928;2022-07-21T18:07:41;34.90;40.30
6468;DHT22;3267;48.794;9.928;2022-07-21T18:10:08;34.80;40.90
6468;DHT22;3267;48.794;9.928;2022-07-21T18:12:34;34.30;42.00
6468;DHT22;3267;48.794;9.928;2022-07-21T18:15:00;34.00;42.10
6468;DHT22;3267;48.794;9.928;2022-07-21T18:17:26;33.80;42.70
6468;DHT22;3267;48.794;9.928;2022-07-21T18:19:54;33.60;42.90
6468;DHT22;3267;48.794;9.928;2022-07-21T18:22:20;33.30;43.40
6468;DHT22;3267;48.794;9.928;2022-07-21T18:24:46;33.10;44.00
6468;DHT22;3267;48.794;9.928;2022-07-21T18:27:12;32.90;44.00
6468;DHT22;3267;48.794;9.928;2022-07-21T18:29:38;32.70;44.40
6468;DHT22;3267;48.794;9.928;2022-07-21T18:32:04;32.50;44.80
6468;DHT22;3267;48.794;9.928;2022-07-21T18:34:30;32.20;44.60
6468;DHT22;3267;48.794;9.928;2022-07-21T18:36:56;32.00;45.10
6468;DHT22;3267;48.794;9.928;2022-07-21T18:39:22;31.90;45.60
6468;DHT22;3267;48.794;9.928;2022-07-21T18:41:48;31.70;45.90
6468;DHT22;3267;48.794;9.928;2022-07-21T18:44:14;31.70;46.30
6468;DHT22;3267;48.794;9.928;2022-07-21T18:46:40;31.50;46.70
6468;DHT22;3267;48.794;9.928;2022-07-21T18:49:05;31.70;47.50
6468;DHT22;3267;48.794;9.928;2022-07-21T18:51:31;31.60;47.60
6468;DHT22;3267;48.794;9.928;2022-07-21T18:53:57;31.50;47.70
6468;DHT22;3267;48.794;9.928;2022-07-21T18:56:25;31.40;48.20
6468;DHT22;3267;48.794;9.928;2022-07-21T18:58:52;31.30;48.60
6468;DHT22;3267;48.794;9.928;2022-07-21T19:01:18;31.30;49.10
6468;DHT22;3267;48.794;9.928;2022-07-21T19:03:44;31.20;48.90
6468;DHT22;3267;48.794;9.928;2022-07-21T19:06:11;31.20;49.30
6468;DHT22;3267;48.794;9.928;2022-07-21T19:08:37;31.00;49.00
6468;DHT22;3267;48.794;9.928;2022-07-21T19:11:03;30.90;49.30
6468;DHT22;3267;48.794;9.928;2022-07-21T19:13:30;30.80;49.20
6468;DHT22;3267;48.794;9.928;2022-07-21T19:15:57;30.60;49.10
6468;DHT22;3267;48.794;9.928;2022-07-21T19:18:22;30.60;49.10
6468;DHT22;3267;48.794;9.928;2022-07-21T19:20:49;30.40;49.10
6468;DHT22;3267;48.794;9.928;2022-07-21T19:23:15;30.20;49.10
6468;DHT22;3267;48.794;9.928;2022-07-21T19:25:41;30.10;49.20
6468;DHT22;3267;48.794;9.928;2022-07-21T19:28:07;29.90;49.10
6468;DHT22;3267;48.794;9.928;2022-07-21T19:30:33;29.70;49.20
6468;DHT22;3267;48.794;9.928;2022-07-21T19:32:59;29.60;49.10
6468;DHT22;3267;48.794;9.928;2022-07-21T19:35:25;29.50;49.10
6468;DHT22;3267;48.794;9.928;2022-07-21T19:37:53;29.40;49.10
6468;DHT22;3267;48.794;9.928;2022-07-21T19:40:19;29.30;50.10
6468;DHT22;3267;48.794;9.928;2022-07-21T19:42:45;29.40;50.90
6468;DHT22;3267;48.794;9.928;2022-07-21T19:45:11;29.60;51.00
6468;DHT22;3267;48.794;9.928;2022-07-21T19:47:38;29.50;50.60
6468;DHT22;3267;48.794;9.928;2022-07-21T19:50:05;29.40;49.90
6468;DHT22;3267;48.794;9.928;2022-07-21T19:52:31;29.10;49.80
6468;DHT22;3267;48.794;9.928;2022-07-21T19:54:57;29.00;49.70
6468;DHT22;3267;48.794;9.928;2022-07-21T19:57:23;28.90;49.90
6468;DHT22;3267;48.794;9.928;2022-07-21T19:59:55;28.80;49.80
6468;DHT22;3267;48.794;9.928;2022-07-21T20:02:21;28.70;49.80
6468;DHT22;3267;48.794;9.928;2022-07-21T20:04:48;28.50;49.90
6468;DHT22;3267;48.794;9.928;2022-07-21T20:07:14;28.50;50.00
6468;DHT22;3267;48.794;9.928;2022-07-21T20:09:42;28.40;50.20
6468;DHT22;3267;48.794;9.928;2022-07-21T20:12:08;28.40;50.50
6468;DHT22;3267;48.794;9.928;2022-07-21T20:14:35;28.20;50.30
6468;DHT22;3267;48.794;9.928;2022-07-21T20:17:02;28.20;50.50
6468;DHT22;3267;48.794;9.928;2022-07-21T20:19:28;28.10;50.40
6468;DHT22;3267;48.794;9.928;2022-07-21T20:21:54;28.00;50.50
6468;DHT22;3267;48.794;9.928;2022-07-21T20:24:20;27.90;50.50
6468;DHT22;3267;48.794;9.928;2022-07-21T20:26:46;27.80;50.50
6468;DHT22;3267;48.794;9.928;2022-07-21T20:29:12;27.80;50.50
6468;DHT22;3267;48.794;9.928;2022-07-21T20:31:38;27.70;50.50
6468;DHT22;3267;48.794;9.928;2022-07-21T20:34:04;27.60;51.10
6468;DHT22;3267;48.794;9.928;2022-07-21T20:36:33;27.60;50.60
6468;DHT22;3267;48.794;9.928;2022-07-21T20:38:59;27.50;50.70
6468;DHT22;3267;48.794;9.928;2022-07-21T20:41:25;27.50;50.80
6468;DHT22;3267;48.794;9.928;2022-07-21T20:43:51;27.30;50.50
6468;DHT22;3267;48.794;9.928;2022-07-21T20:46:17;27.30;50.90
6468;DHT22;3267;48.794;9.928;2022-07-21T20:48:43;27.20;51.30
6468;DHT22;3267;48.794;9.928;2022-07-21T20:51:10;27.40;51.70
6468;DHT22;3267;48.794;9.928;2022-07-21T20:53:36;27.40;51.70
6468;DHT22;3267;48.794;9.928;2022-07-21T20:56:02;27.20;51.30
6468;DHT22;3267;48.794;9.928;2022-07-21T20:58:28;27.20;51.10
6468;DHT22;3267;48.794;9.928;2022-07-21T21:00:54;27.10;50.80
6468;DHT22;3267;48.794;9.928;2022-07-21T21:03:19;26.90;50.70
6468;DHT22;3267;48.794;9.928;2022-07-21T21:05:46;26.90;50.70
6468;DHT22;3267;48.794;9.928;2022-07-21T21:08:12;26.90;51.00
6468;DHT22;3267;48.794;9.928;2022-07-21T21:10:38;26.90;50.90
6468;DHT22;3267;48.794;9.928;2022-07-21T21:13:04;26.70;50.80
6468;DHT22;3267;48.794;9.928;2022-07-21T21:15:30;26.80;50.90
6468;DHT22;3267;48.794;9.928;2022-07-21T21:17:56;26.80;51.10
6468;DHT22;3267;48.794;9.928;2022-07-21T21:20:21;26.70;51.20
6468;DHT22;3267;48.794;9.928;2022-07-21T21:22:47;26.60;51.10
6468;DHT22;3267;48.794;9.928;2022-07-21T21:25:13;26.60;51.00
6468;DHT22;3267;48.794;9.928;2022-07-21T21:27:39;26.50;51.00
